sensor_id;sensor_type;location;lat;lon;timestamp;pressure;altitude;pressure_sealevel;temperature;humidity
60820;BME280;46641;48.904;9.126;2023-05-22T00:01:24;98161.56;;;23.36;44.45
60820;BME280;46641;48.904;9.126;2023-05-22T00:06:17;98153.69;;;23.29;44.37
60820;BME280;46641;48.904;9.126;2023-05-22T00:11:08;98154.16;;;23.26;44.39
60820;BME280;46641;48.904;9.126;2023-05-22T00:15:58;98153.84;;;23.22;44.41
60820;BME280;46641;48.904;9.126;2023-05-22T00:20:48;98157.44;;;23.16;44.38
60820;BME280;46641;48.904;9.126;2023-05-22T00:25:39;98158.97;;;23.12;44.40
60820;BME280;46641;48.904;9.126;2023-05-22T00:30:30;98149.81;;;23.08;44.61
60820;BME280;46641;48.904;9.126;2023-05-22T00:35:20;98144.38;;;23.03;44.46
60820;BME280;46641;48.904;9.126;2023-05-22T00:40:12;98151.25;;;22.99;44.70
60820;BME280;46641;48.904;9.126;2023-05-22T00:45:04;98143.13;;;22.94;44.66
60820;BME280;46641;48.904;9.126;2023-05-22T00:49:55;98147.28;;;22.90;44.72
60820;BME280;46641;48.904;9.126;2023-05-22T00:54:47;98146.13;;;22.85;44.72
60820;BME280;46641;48.904;9.126;2023-05-22T00:59:39;98145.81;;;22.82;44.93
60820;BME280;46641;48.904;9.126;2023-05-22T01:04:29;98139.53;;;22.76;44.80
60820;BME280;46641;48.904;9.126;2023-05-22T01:09:21;98145.34;;;22.73;44.93
60820;BME280;46641;48.904;9.126;2023-05-22T01:14:19;98145.22;;;22.68;45.20
60820;BME280;46641;48.904;9.126;2023-05-22T01:29:46;98159.63;;;22.55;45.39
60820;BME280;46641;48.904;9.126;2023-05-22T01:34:42;98162.19;;;22.50;45.36
60820;BME280;46641;48.904;9.126;2023-05-22T01:39:34;98157.56;;;22.46;45.11
60820;BME280;46641;48.904;9.126;2023-05-22T01:44:25;98168.69;;;22.43;44.97
60820;BME280;46641;48.904;9.126;2023-05-22T01:49:15;98167.53;;;22.38;45.44
60820;BME280;46641;48.904;9.126;2023-05-22T01:54:13;98169.84;;;22.35;45.39
60820;BME280;46641;48.904;9.126;2023-05-22T01:59:13;98163.34;;;22.31;45.33
60820;BME280;46641;48.904;9.126;2023-05-22T02:04:09;98164.63;;;22.28;45.36
60820;BME280;46641;48.904;9.126;2023-05-22T02:09:00;98167.19;;;22.23;45.68
60820;BME280;46641;48.904;9.126;2023-05-22T02:13:52;98169.47;;;22.20;45.39
60820;BME280;46641;48.904;9.126;2023-05-22T02:18:42;98171.59;;;22.17;45.51
60820;BME280;46641;48.904;9.126;2023-05-22T02:23:33;98174.88;;;22.13;45.56
60820;BME280;46641;48.904;9.126;2023-05-22T02:28:24;98168.19;;;22.10;45.56
60820;BME280;46641;48.904;9.126;2023-05-22T02:33:14;98162.50;;;22.07;45.44
60820;BME280;46641;48.904;9.126;2023-05-22T02:38:06;98161.31;;;22.03;45.56
60820;BME280;46641;48.904;9.126;2023-05-22T02:42:57;98165.28;;;22.00;45.74
60820;BME280;46641;48.904;9.126;2023-05-22T02:47:47;98165.94;;;21.96;45.82
60820;BME280;46641;48.904;9.126;2023-05-22T02:52:37;98167.47;;;21.91;45.77
60820;BME280;46641;48.904;9.126;2023-05-22T02:57:28;98170.56;;;21.88;45.77
60820;BME280;46641;48.904;9.126;2023-05-22T03:02:18;98177.41;;;21.84;45.71
60820;BME280;46641;48.904;9.126;2023-05-22T03:07:09;98175.19;;;21.81;46.02
60820;BME280;46641;48.904;9.126;2023-05-22T03:12:01;98183.84;;;21.77;46.00
60820;BME280;46641;48.904;9.126;2023-05-22T03:16:51;98183.50;;;21.73;45.90
60820;BME280;46641;48.904;9.126;2023-05-22T03:21:43;98186.06;;;21.68;45.98
60820;BME280;46641;48.904;9.126;2023-05-22T03:26:34;98183.84;;;21.65;46.16
60820;BME280;46641;48.904;9.126;2023-05-22T03:31:26;98192.50;;;21.60;46.02
60820;BME280;46641;48.904;9.126;2023-05-22T03:36:17;98184.16;;;21.57;46.01
60820;BME280;46641;48.904;9.126;2023-05-22T03:41:08;98186.44;;;21.53;46.16
60820;BME280;46641;48.904;9.126;2023-05-22T03:45:58;98194.09;;;21.50;46.26
60820;BME280;46641;48.904;9.126;2023-05-22T03:50:48;98195.34;;;21.47;46.35
60820;BME280;46641;48.904;9.126;2023-05-22T03:55:39;98192.31;;;21.43;46.26
60820;BME280;46641;48.904;9.126;2023-05-22T04:00:29;98191.72;;;21.41;46.21
60820;BME280;46641;48.904;9.126;2023-05-22T04:05:20;98203.66;;;21.39;46.37
60820;BME280;46641;48.904;9.126;2023-05-22T04:10:11;98203.28;;;21.35;46.33
60820;BME280;46641;48.904;9.126;2023-05-22T04:15:01;98206.56;;;21.31;46.42
60820;BME280;46641;48.904;9.126;2023-05-22T04:19:51;98204.16;;;21.29;46.51
60820;BME280;46641;48.904;9.126;2023-05-22T04:24:42;98211.53;;;21.27;46.39
60820;BME280;46641;48.904;9.126;2023-05-22T04:29:32;98207.47;;;21.24;46.61
60820;BME280;46641;48.904;9.126;2023-05-22T04:34:25;98208.72;;;21.22;46.51
60820;BME280;46641;48.904;9.126;2023-05-22T04:39:15;98210.00;;;21.19;46.51
60820;BME280;46641;48.904;9.126;2023-05-22T04:44:06;98221.91;;;21.17;46.74
60820;BME280;46641;48.904;9.126;2023-05-22T04:48:56;98216.78;;;21.15;46.60
60820;BME280;46641;48.904;9.126;2023-05-22T04:53:50;98221.53;;;21.13;46.82
60820;BME280;46641;48.904;9.126;2023-05-22T04:58:41;98229.97;;;21.10;46.98
60820;BME280;46641;48.904;9.126;2023-05-22T05:03:31;98231.81;;;21.10;46.99
60820;BME280;46641;48.904;9.126;2023-05-22T05:08:21;98235.50;;;21.09;46.81
60820;BME280;46641;48.904;9.126;2023-05-22T05:13:12;98232.66;;;20.67;49.87
60820;BME280;46641;48.904;9.126;2023-05-22T05:18:02;98231.47;;;20.38;51.32
60820;BME280;46641;48.904;9.126;2023-05-22T05:22:52;98228.25;;;20.79;50.00
60820;BME280;46641;48.904;9.126;2023-05-22T05:27:43;98237.28;;;20.96;49.24
60820;BME280;46641;48.904;9.126;2023-05-22T05:32:33;98226.56;;;21.03;48.81
60820;BME280;46641;48.904;9.126;2023-05-22T05:37:23;98230.63;;;21.06;48.68
60820;BME280;46641;48.904;9.126;2023-05-22T05:42:14;98226.56;;;21.03;48.33
60820;BME280;46641;48.904;9.126;2023-05-22T05:47:04;98222.88;;;21.04;48.42
60820;BME280;46641;48.904;9.126;2023-05-22T05:51:55;98226.56;;;21.03;48.63
60820;BME280;46641;48.904;9.126;2023-05-22T05:56:45;98227.38;;;21.04;48.48
60820;BME280;46641;48.904;9.126;2023-05-22T06:01:36;98227.38;;;21.04;48.40
60820;BME280;46641;48.904;9.126;2023-05-22T06:06:29;98229.81;;;21.05;48.12
60820;BME280;46641;48.904;9.126;2023-05-22T06:11:19;98227.94;;;21.06;47.98
60820;BME280;46641;48.904;9.126;2023-05-22T06:16:11;98232.03;;;21.08;48.21
60820;BME280;46641;48.904;9.126;2023-05-22T06:21:01;98237.72;;;21.12;48.10
60820;BME280;46641;48.904;9.126;2023-05-22T06:25:52;98234.84;;;21.13;48.33
60820;BME280;46641;48.904;9.126;2023-05-22T06:30:43;98237.88;;;21.17;47.94
60820;BME280;46641;48.904;9.126;2023-05-22T06:35:33;98241.34;;;21.17;47.67
60820;BME280;46641;48.904;9.126;2023-05-22T06:40:23;98239.06;;;21.21;47.87
60820;BME280;46641;48.904;9.126;2023-05-22T06:45:13;98241.50;;;21.22;47.78
60820;BME280;46641;48.904;9.126;2023-05-22T06:50:06;98245.53;;;21.25;47.88
60820;BME280;46641;48.904;9.126;2023-05-22T06:54:56;98243.47;;;21.27;47.80
60820;BME280;46641;48.904;9.126;2023-05-22T06:59:53;98242.81;;;21.32;47.78
60820;BME280;46641;48.904;9.126;2023-05-22T07:04:43;98253.03;;;21.35;47.72
60820;BME280;46641;48.904;9.126;2023-05-22T07:09:33;98254.44;;;21.37;47.71
60820;BME280;46641;48.904;9.126;2023-05-22T07:14:24;98260.13;;;21.41;47.64
60820;BME280;46641;48.904;9.126;2023-05-22T07:19:14;98259.69;;;21.44;47.57
60820;BME280;46641;48.904;9.126;2023-05-22T07:24:05;98261.91;;;21.47;47.56
60820;BME280;46641;48.904;9.126;2023-05-22T07:28:58;98248.97;;;21.51;47.50
60820;BME280;46641;48.904;9.126;2023-05-22T07:33:48;98245.84;;;21.54;47.52
60820;BME280;46641;48.904;9.126;2023-05-22T07:38:39;98245.41;;;21.57;47.51
60820;BME280;46641;48.904;9.126;2023-05-22T07:43:29;98250.28;;;21.60;47.67
60820;BME280;46641;48.904;9.126;2023-05-22T07:48:20;98252.50;;;21.63;47.70
60820;BME280;46641;48.904;9.126;2023-05-22T07:53:10;98253.66;;;21.67;47.48
60820;BME280;46641;48.904;9.126;2023-05-22T07:58:01;98256.47;;;21.72;47.54
60820;BME280;46641;48.904;9.126;2023-05-22T08:02:53;98258.69;;;21.75;47.40
60820;BME280;46641;48.904;9.126;2023-05-22T08:07:43;98253.72;;;21.79;47.68
60820;BME280;46641;48.904;9.126;2023-05-22T08:12:33;98255.13;;;21.81;47.51
60820;BME280;46641;48.904;9.126;2023-05-22T08:17:24;98256.28;;;21.85;47.38
60820;BME280;46641;48.904;9.126;2023-05-22T08:22:14;98261.78;;;21.90;47.66
60820;BME280;46641;48.904;9.126;2023-05-22T08:27:04;98248.56;;;21.96;47.44
60820;BME280;46641;48.904;9.126;2023-05-22T08:31:55;98259.38;;;22.01;47.44
60820;BME280;46641;48.904;9.126;2023-05-22T08:36:47;98256.81;;;22.06;47.43
60820;BME280;46641;48.904;9.126;2023-05-22T08:41:38;98250.56;;;22.12;47.38
60820;BME280;46641;48.904;9.126;2023-05-22T08:46:29;98246.78;;;22.20;47.27
60820;BME280;46641;48.904;9.126;2023-05-22T08:51:20;98240.53;;;22.26;46.96
60820;BME280;46641;48.904;9.126;2023-05-22T08:56:11;98244.16;;;22.31;47.14
60820;BME280;46641;48.904;9.126;2023-05-22T09:01:03;98236.63;;;22.40;47.46
60820;BME280;46641;48.904;9.126;2023-05-22T09:05:54;98243.72;;;22.46;47.33
60820;BME280;46641;48.904;9.126;2023-05-22T09:10:44;98241.75;;;22.53;47.13
60820;BME280;46641;48.904;9.126;2023-05-22T09:15:35;98239.56;;;22.62;47.38
60820;BME280;46641;48.904;9.126;2023-05-22T09:20:26;98239.19;;;22.70;47.27
60820;BME280;46641;48.904;9.126;2023-05-22T09:25:17;98229.00;;;22.79;48.06
60820;BME280;46641;48.904;9.126;2023-05-22T09:30:08;98229.22;;;22.89;48.70
60820;BME280;46641;48.904;9.126;2023-05-22T09:35:02;98243.16;;;23.03;49.03
60820;BME280;46641;48.904;9.126;2023-05-22T09:39:53;98241.50;;;23.14;49.14
60820;BME280;46641;48.904;9.126;2023-05-22T09:44:48;98229.19;;;23.24;49.35
60820;BME280;46641;48.904;9.126;2023-05-22T09:49:43;98231.34;;;23.39;49.27
60820;BME280;46641;48.904;9.126;2023-05-22T09:54:34;98221.69;;;23.50;49.89
60820;BME280;46641;48.904;9.126;2023-05-22T09:59:26;98226.75;;;23.63;49.83
60820;BME280;46641;48.904;9.126;2023-05-22T10:04:21;98230.75;;;23.77;50.30
60820;BME280;46641;48.904;9.126;2023-05-22T10:09:14;98222.44;;;23.91;50.21
60820;BME280;46641;48.904;9.126;2023-05-22T10:14:07;98218.97;;;24.07;50.38
60820;BME280;46641;48.904;9.126;2023-05-22T10:18:59;98217.03;;;24.19;50.40
60820;BME280;46641;48.904;9.126;2023-05-22T10:23:50;98217.84;;;24.37;50.32
60820;BME280;46641;48.904;9.126;2023-05-22T10:28:44;98207.41;;;24.52;50.51
60820;BME280;46641;48.904;9.126;2023-05-22T10:33:40;98209.84;;;24.70;50.84
60820;BME280;46641;48.904;9.126;2023-05-22T10:39:06;98215.16;;;24.87;50.82
60820;BME280;46641;48.904;9.126;2023-05-22T10:44:02;98211.59;;;25.04;51.46
60820;BME280;46641;48.904;9.126;2023-05-22T10:48:53;98199.25;;;25.20;51.44
60820;BME280;46641;48.904;9.126;2023-05-22T10:53:44;98197.06;;;25.38;51.69
60820;BME280;46641;48.904;9.126;2023-05-22T10:58:34;98192.66;;;25.54;51.66
60820;BME280;46641;48.904;9.126;2023-05-22T11:03:28;98191.50;;;25.72;51.63
60820;BME280;46641;48.904;9.126;2023-05-22T11:08:38;98187.13;;;25.88;51.31
60820;BME280;46641;48.904;9.126;2023-05-22T11:13:29;98179.75;;;26.05;51.72
60820;BME280;46641;48.904;9.126;2023-05-22T11:18:20;98173.72;;;26.20;51.38
60820;BME280;46641;48.904;9.126;2023-05-22T11:23:10;98173.00;;;26.35;51.53
60820;BME280;46641;48.904;9.126;2023-05-22T11:28:02;98172.56;;;26.48;51.56
60820;BME280;46641;48.904;9.126;2023-05-22T11:32:53;98163.81;;;26.63;51.55
60820;BME280;46641;48.904;9.126;2023-05-22T11:37:44;98164.16;;;26.77;51.43
60820;BME280;46641;48.904;9.126;2023-05-22T11:42:35;98165.56;;;26.90;51.26
60820;BME280;46641;48.904;9.126;2023-05-22T11:47:27;98157.28;;;27.07;51.13
60820;BME280;46641;48.904;9.126;2023-05-22T11:52:18;98143.38;;;27.20;51.46
60820;BME280;46641;48.904;9.126;2023-05-22T11:57:08;98143.72;;;27.34;51.34
60820;BME280;46641;48.904;9.126;2023-05-22T12:01:59;98134.88;;;27.43;51.16
60820;BME280;46641;48.904;9.126;2023-05-22T12:06:49;98132.19;;;27.54;51.00
60820;BME280;46641;48.904;9.126;2023-05-22T12:11:44;98135.13;;;27.62;51.17
60820;BME280;46641;48.904;9.126;2023-05-22T12:16:35;98138.66;;;27.68;50.46
60820;BME280;46641;48.904;9.126;2023-05-22T12:21:26;98127.63;;;27.69;51.19
60820;BME280;46641;48.904;9.126;2023-05-22T12:26:18;98128.44;;;27.70;50.68
60820;BME280;46641;48.904;9.126;2023-05-22T12:31:08;98132.47;;;27.72;50.82
60820;BME280;46641;48.904;9.126;2023-05-22T12:35:59;98123.09;;;27.80;51.08
60820;BME280;46641;48.904;9.126;2023-05-22T12:40:50;98118.78;;;27.89;50.21
60820;BME280;46641;48.904;9.126;2023-05-22T12:45:40;98123.06;;;28.01;50.28
60820;BME280;46641;48.904;9.126;2023-05-22T12:50:31;98128.19;;;28.07;49.69
60820;BME280;46641;48.904;9.126;2023-05-22T12:55:21;98129.53;;;28.10;49.81
60820;BME280;46641;48.904;9.126;2023-05-22T13:00:12;98123.06;;;28.11;49.91
60820;BME280;46641;48.904;9.126;2023-05-22T13:05:03;98117.69;;;28.11;49.97
60820;BME280;46641;48.904;9.126;2023-05-22T13:09:53;98112.03;;;28.12;49.43
60820;BME280;46641;48.904;9.126;2023-05-22T13:14:43;98112.84;;;28.13;49.53
60820;BME280;46641;48.904;9.126;2023-05-22T13:19:34;98103.72;;;28.09;46.02
60820;BME280;46641;48.904;9.126;2023-05-22T13:24:24;98112.84;;;28.28;42.23
60820;BME280;46641;48.904;9.126;2023-05-22T13:29:14;98095.03;;;28.37;43.09
60820;BME280;46641;48.904;9.126;2023-05-22T13:34:05;98092.88;;;28.50;42.24
60820;BME280;46641;48.904;9.126;2023-05-22T13:38:56;98091.28;;;28.28;44.07
60820;BME280;46641;48.904;9.126;2023-05-22T13:43:46;98086.69;;;28.49;44.92
60820;BME280;46641;48.904;9.126;2023-05-22T13:48:36;98096.09;;;28.57;45.12
60820;BME280;46641;48.904;9.126;2023-05-22T13:53:27;98103.59;;;28.60;45.49
60820;BME280;46641;48.904;9.126;2023-05-22T13:58:17;98102.25;;;28.62;45.60
60820;BME280;46641;48.904;9.126;2023-05-22T14:03:07;98099.00;;;28.65;42.51
60820;BME280;46641;48.904;9.126;2023-05-22T14:07:57;98094.25;;;28.47;45.24
60820;BME280;46641;48.904;9.126;2023-05-22T14:12:48;98089.06;;;28.61;45.05
60820;BME280;46641;48.904;9.126;2023-05-22T14:17:38;98081.78;;;28.67;45.63
60820;BME280;46641;48.904;9.126;2023-05-22T14:22:28;98086.34;;;28.71;45.63
60820;BME280;46641;48.904;9.126;2023-05-22T14:27:19;98090.38;;;28.74;45.41
60820;BME280;46641;48.904;9.126;2023-05-22T14:32:09;98086.03;;;28.73;45.61
60820;BME280;46641;48.904;9.126;2023-05-22T14:36:59;98081.22;;;28.70;43.79
60820;BME280;46641;48.904;9.126;2023-05-22T14:41:51;98089.38;;;28.34;46.09
60820;BME280;46641;48.904;9.126;2023-05-22T14:46:42;98086.09;;;28.62;45.90
60820;BME280;46641;48.904;9.126;2023-05-22T14:51:32;98091.44;;;28.73;45.71
60820;BME280;46641;48.904;9.126;2023-05-22T14:56:23;98094.91;;;28.78;45.50
60820;BME280;46641;48.904;9.126;2023-05-22T15:01:13;98101.91;;;28.79;45.57
60820;BME280;46641;48.904;9.126;2023-05-22T15:06:04;98102.75;;;28.80;45.28
60820;BME280;46641;48.904;9.126;2023-05-22T15:10:56;98118.06;;;28.79;45.38
60820;BME280;46641;48.904;9.126;2023-05-22T15:15:46;98112.69;;;28.79;45.37
60820;BME280;46641;48.904;9.126;2023-05-22T15:20:36;98111.88;;;28.79;45.46
60820;BME280;46641;48.904;9.126;2023-05-22T15:25:27;98101.09;;;28.79;45.44
60820;BME280;46641;48.904;9.126;2023-05-22T15:30:17;98101.09;;;28.79;45.94
60820;BME280;46641;48.904;9.126;2023-05-22T15:35:09;98097.63;;;28.78;45.70
60820;BME280;46641;48.904;9.126;2023-05-22T15:40:01;98088.72;;;28.78;45.22
60820;BME280;46641;48.904;9.126;2023-05-22T15:44:52;98081.44;;;28.78;45.80
60820;BME280;46641;48.904;9.126;2023-05-22T15:49:43;98078.75;;;28.78;45.70
60820;BME280;46641;48.904;9.126;2023-05-22T15:54:33;98090.63;;;28.77;45.40
60820;BME280;46641;48.904;9.126;2023-05-22T15:59:23;98092.88;;;28.50;41.49
60820;BME280;46641;48.904;9.126;2023-05-22T16:04:14;98106.34;;;28.24;43.07
60820;BME280;46641;48.904;9.126;2023-05-22T16:09:04;98101.19;;;28.58;43.32
60820;BME280;46641;48.904;9.126;2023-05-22T16:13:55;98100.34;;;28.73;43.76
60820;BME280;46641;48.904;9.126;2023-05-22T16:18:45;98094.38;;;28.81;43.54
60820;BME280;46641;48.904;9.126;2023-05-22T16:23:35;98095.97;;;28.87;43.95
60820;BME280;46641;48.904;9.126;2023-05-22T16:28:26;98088.97;;;28.86;43.98
60820;BME280;46641;48.904;9.126;2023-05-22T16:33:16;98087.88;;;28.87;44.18
60820;BME280;46641;48.904;9.126;2023-05-22T16:38:06;98088.44;;;28.84;44.01
60820;BME280;46641;48.904;9.126;2023-05-22T16:43:00;98104.59;;;28.84;43.67
60820;BME280;46641;48.904;9.126;2023-05-22T16:47:50;98113.75;;;28.83;44.12
60820;BME280;46641;48.904;9.126;2023-05-22T16:52:41;98113.22;;;28.81;43.96
60820;BME280;46641;48.904;9.126;2023-05-22T16:57:31;98113.78;;;28.78;44.20
60820;BME280;46641;48.904;9.126;2023-05-22T17:02:21;98123.22;;;28.76;44.03
60820;BME280;46641;48.904;9.126;2023-05-22T17:07:12;98133.72;;;28.72;44.12
60820;BME280;46641;48.904;9.126;2023-05-22T17:12:02;98145.03;;;28.69;43.65
60820;BME280;46641;48.904;9.126;2023-05-22T17:16:53;98145.88;;;28.64;43.76
60820;BME280;46641;48.904;9.126;2023-05-22T17:21:44;98160.69;;;28.62;43.43
60820;BME280;46641;48.904;9.126;2023-05-22T17:26:35;98163.94;;;28.59;43.23
60820;BME280;46641;48.904;9.126;2023-05-22T17:31:25;98161.28;;;28.54;43.67
60820;BME280;46641;48.904;9.126;2023-05-22T17:36:16;98180.66;;;28.51;43.26
60820;BME280;46641;48.904;9.126;2023-05-22T17:41:06;98191.72;;;28.44;43.12
60820;BME280;46641;48.904;9.126;2023-05-22T17:45:56;98174.19;;;28.36;43.26
60820;BME280;46641;48.904;9.126;2023-05-22T17:50:48;98185.22;;;28.30;42.60
60820;BME280;46641;48.904;9.126;2023-05-22T17:55:38;98177.16;;;28.25;43.62
60820;BME280;46641;48.904;9.126;2023-05-22T18:00:28;98175.81;;;28.17;42.89
60820;BME280;46641;48.904;9.126;2023-05-22T18:05:19;98180.13;;;28.13;43.21
60820;BME280;46641;48.904;9.126;2023-05-22T18:10:09;98183.09;;;28.06;42.83
60820;BME280;46641;48.904;9.126;2023-05-22T18:15:00;98177.44;;;27.98;42.79
60820;BME280;46641;48.904;9.126;2023-05-22T18:19:50;98187.13;;;27.93;43.28
60820;BME280;46641;48.904;9.126;2023-05-22T18:24:40;98174.47;;;27.89;43.17
60820;BME280;46641;48.904;9.126;2023-05-22T18:29:31;98168.84;;;27.85;43.03
60820;BME280;46641;48.904;9.126;2023-05-22T18:34:21;98172.31;;;27.81;43.28
60820;BME280;46641;48.904;9.126;2023-05-22T18:39:11;98172.53;;;27.74;42.86
60820;BME280;46641;48.904;9.126;2023-05-22T18:44:02;98176.84;;;27.70;43.18
60820;BME280;46641;48.904;9.126;2023-05-22T18:48:52;98180.59;;;27.64;43.29
60820;BME280;46641;48.904;9.126;2023-05-22T18:53:43;98181.66;;;27.58;43.21
60820;BME280;46641;48.904;9.126;2023-05-22T18:58:33;98188.66;;;27.54;43.25
60820;BME280;46641;48.904;9.126;2023-05-22T19:03:24;98189.72;;;27.47;43.47
60820;BME280;46641;48.904;9.126;2023-05-22T19:08:14;98197.75;;;27.42;43.60
60820;BME280;46641;48.904;9.126;2023-05-22T19:13:04;98195.06;;;27.37;43.47
60820;BME280;46641;48.904;9.126;2023-05-22T19:17:55;98204.19;;;27.31;43.53
60820;BME280;46641;48.904;9.126;2023-05-22T19:22:45;98202.53;;;27.25;43.29
60820;BME280;46641;48.904;9.126;2023-05-22T19:27:36;98218.63;;;27.20;43.38
60820;BME280;46641;48.904;9.126;2023-05-22T19:32:27;98229.38;;;27.15;43.48
60820;BME280;46641;48.904;9.126;2023-05-22T19:37:18;98235.75;;;27.09;43.27
60820;BME280;46641;48.904;9.126;2023-05-22T19:42:08;98245.41;;;27.04;43.70
60820;BME280;46641;48.904;9.126;2023-05-22T19:46:59;98248.06;;;26.99;43.33
60820;BME280;46641;48.904;9.126;2023-05-22T19:51:50;98256.34;;;26.93;43.56
60820;BME280;46641;48.904;9.126;2023-05-22T19:56:40;98262.53;;;26.88;43.38
60820;BME280;46641;48.904;9.126;2023-05-22T20:01:30;98271.34;;;26.84;43.82
60820;BME280;46641;48.904;9.126;2023-05-22T20:06:21;98259.22;;;26.76;43.96
60820;BME280;46641;48.904;9.126;2023-05-22T20:11:11;98271.53;;;26.72;43.67
60820;BME280;46641;48.904;9.126;2023-05-22T20:16:01;98267.75;;;26.68;43.93
60820;BME280;46641;48.904;9.126;2023-05-22T20:20:52;98261.78;;;26.61;44.08
60820;BME280;46641;48.904;9.126;2023-05-22T20:25:42;98266.31;;;26.55;43.83
60820;BME280;46641;48.904;9.126;2023-05-22T20:30:33;98272.44;;;26.50;43.64
60820;BME280;46641;48.904;9.126;2023-05-22T20:35:23;98291.16;;;26.45;43.77
60820;BME280;46641;48.904;9.126;2023-05-22T20:40:15;98286.84;;;26.39;43.95
60820;BME280;46641;48.904;9.126;2023-05-22T20:45:07;98284.91;;;26.34;43.99
60820;BME280;46641;48.904;9.126;2023-05-22T20:49:57;98300.69;;;26.31;44.02
60820;BME280;46641;48.904;9.126;2023-05-22T20:54:47;98314.06;;;26.26;44.23
60820;BME280;46641;48.904;9.126;2023-05-22T20:59:38;98310.53;;;26.20;43.89
60820;BME280;46641;48.904;9.126;2023-05-22T21:04:28;98324.69;;;26.16;44.07
60820;BME280;46641;48.904;9.126;2023-05-22T21:09:18;98324.66;;;26.10;44.00
60820;BME280;46641;48.904;9.126;2023-05-22T21:14:09;98314.69;;;26.06;44.12
60820;BME280;46641;48.904;9.126;2023-05-22T21:18:59;98309.50;;;25.99;44.39
60820;BME280;46641;48.904;9.126;2023-05-22T21:23:49;98305.72;;;25.95;44.19
60820;BME280;46641;48.904;9.126;2023-05-22T21:28:41;98306.50;;;25.91;44.27
60820;BME280;46641;48.904;9.126;2023-05-22T21:33:32;98312.59;;;25.86;44.25
60820;BME280;46641;48.904;9.126;2023-05-22T21:38:22;98320.59;;;25.81;44.51
60820;BME280;46641;48.904;9.126;2023-05-22T21:43:12;98327.47;;;25.77;44.52
60820;BME280;46641;48.904;9.126;2023-05-22T21:48:03;98327.16;;;25.73;44.31
60820;BME280;46641;48.904;9.126;2023-05-22T21:52:54;98323.63;;;25.68;44.40
60820;BME280;46641;48.904;9.126;2023-05-22T21:57:44;98328.66;;;25.64;44.71
60820;BME280;46641;48.904;9.126;2023-05-22T22:02:34;98328.84;;;25.57;45.14
60820;BME280;46641;48.904;9.126;2023-05-22T22:07:25;98335.22;;;25.51;44.62
60820;BME280;46641;48.904;9.126;2023-05-22T22:12:15;98337.81;;;25.46;44.93
60820;BME280;46641;48.904;9.126;2023-05-22T22:17:05;98349.03;;;25.43;45.03
60820;BME280;46641;48.904;9.126;2023-05-22T22:21:56;98355.38;;;25.37;44.88
60820;BME280;46641;48.904;9.126;2023-05-22T22:26:47;98353.47;;;25.32;44.68
60820;BME280;46641;48.904;9.126;2023-05-22T22:31:38;98357.94;;;25.27;44.84
60820;BME280;46641;48.904;9.126;2023-05-22T22:36:28;98351.44;;;25.23;44.84
60820;BME280;46641;48.904;9.126;2023-05-22T22:41:18;98348.44;;;25.19;44.86
60820;BME280;46641;48.904;9.126;2023-05-22T22:46:09;98351.84;;;25.14;44.88
60820;BME280;46641;48.904;9.126;2023-05-22T22:50:59;98353.16;;;25.12;45.13
60820;BME280;46641;48.904;9.126;2023-05-22T22:55:54;98356.53;;;25.07;45.33
60820;BME280;46641;48.904;9.126;2023-05-22T23:00:45;98359.97;;;25.03;45.44
60820;BME280;46641;48.904;9.126;2023-05-22T23:05:35;98362.56;;;24.98;45.29
60820;BME280;46641;48.904;9.126;2023-05-22T23:10:26;98358.16;;;24.91;45.69
60820;BME280;46641;48.904;9.126;2023-05-22T23:15:17;98364.00;;;24.88;46.12
60820;BME280;46641;48.904;9.126;2023-05-22T23:20:08;98360.44;;;24.83;46.21
60820;BME280;46641;48.904;9.126;2023-05-22T23:24:58;98359.31;;;24.79;46.92
60820;BME280;46641;48.904;9.126;2023-05-22T23:29:49;98373.91;;;24.71;46.32
60820;BME280;46641;48.904;9.126;2023-05-22T23:34:39;98371.94;;;24.66;46.95
60820;BME280;46641;48.904;9.126;2023-05-22T23:39:31;98372.09;;;24.60;46.64
60820;BME280;46641;48.904;9.126;2023-05-22T23:44:21;98363.19;;;24.54;46.85
60820;BME280;46641;48.904;9.126;2023-05-22T23:49:12;98371.69;;;24.51;46.75
60820;BME280;46641;48.904;9.126;2023-05-22T23:54:02;98372.41;;;24.46;47.56
60820;BME280;46641;48.904;9.126;2023-05-22T23:58:52;98379.56;;;24.41;47.22
